2A7 weather

Department of Transportation Heliport
Columbus, Ohio, United States

Public forecast

Using degrees Fahrenheit for public forecast. Weather courtesy of forecast.io.

METAR (pilot weather report)

Closest report is Bolton Field, 5.5 nm (10.3 km) SW. Retrieved 2019/05/19 14:45 UTC (1 hour ago):

KTZR 191445Z 20020G25KT 10SM SKC 26/18 A2989

TAF (pilot weather forecast)

Closest forecast is John Glenn Columbus International Airport, 7.4 nm (13.6 km) ENE. Retrieved 2019/05/19 12:22 UTC (3 hours ago):

TAF KCMH 191120Z 1912/2012 19012KT P6SM FEW150 SCT250 FM191400 20017G27KT P6SM SCT150 BKN250 FM191900 21021G40KT P6SM FEW050 BKN250 FM192000 21020G40KT P6SM VCSH BKN050 FM192300 22017G27KT P6SM -SHRA VCTS BKN050CB OVC100 FM200200 21014G23KT P6SM -SHRA OVC040 FM200600 24012KT P6SM BKN012